sensor_id;sensor_type;location;lat;lon;timestamp;P1;durP1;ratioP1;P2;durP2;ratioP2
3101;SDS011;1561;42.666;23.392;2022-10-16T00:00:08;14.00;;;11.97;;
3101;SDS011;1561;42.666;23.392;2022-10-16T00:02:39;15.83;;;12.50;;
3101;SDS011;1561;42.666;23.392;2022-10-16T00:05:06;17.17;;;12.73;;
3101;SDS011;1561;42.666;23.392;2022-10-16T00:07:33;21.13;;;14.57;;
3101;SDS011;1561;42.666;23.392;2022-10-16T00:10:00;20.40;;;13.77;;
3101;SDS011;1561;42.666;23.392;2022-10-16T00:12:29;17.00;;;13.97;;
3101;SDS011;1561;42.666;23.392;2022-10-16T00:15:00;24.40;;;15.90;;
3101;SDS011;1561;42.666;23.392;2022-10-16T00:17:36;18.67;;;12.80;;
3101;SDS011;1561;42.666;23.392;2022-10-16T00:20:05;20.93;;;15.33;;
3101;SDS011;1561;42.666;23.392;2022-10-16T00:22:33;17.83;;;13.00;;
3101;SDS011;1561;42.666;23.392;2022-10-16T00:24:59;19.13;;;14.00;;
3101;SDS011;1561;42.666;23.392;2022-10-16T00:27:26;20.60;;;14.93;;
3101;SDS011;1561;42.666;23.392;2022-10-16T00:29:54;18.00;;;13.30;;
3101;SDS011;1561;42.666;23.392;2022-10-16T00:32:30;20.13;;;14.70;;
3101;SDS011;1561;42.666;23.392;2022-10-16T00:34:56;22.17;;;14.20;;
3101;SDS011;1561;42.666;23.392;2022-10-16T00:37:23;20.57;;;14.70;;
3101;SDS011;1561;42.666;23.392;2022-10-16T00:39:50;21.73;;;15.03;;
3101;SDS011;1561;42.666;23.392;2022-10-16T00:42:17;21.90;;;15.57;;
3101;SDS011;1561;42.666;23.392;2022-10-16T00:44:46;23.27;;;15.23;;
3101;SDS011;1561;42.666;23.392;2022-10-16T00:47:19;22.77;;;15.80;;
3101;SDS011;1561;42.666;23.392;2022-10-16T00:49:50;22.90;;;16.50;;
3101;SDS011;1561;42.666;23.392;2022-10-16T00:52:21;24.10;;;15.73;;
3101;SDS011;1561;42.666;23.392;2022-10-16T00:54:49;18.73;;;14.60;;
3101;SDS011;1561;42.666;23.392;2022-10-16T00:57:19;19.43;;;13.90;;
3101;SDS011;1561;42.666;23.392;2022-10-16T00:59:46;23.40;;;15.80;;
3101;SDS011;1561;42.666;23.392;2022-10-16T01:02:16;19.60;;;15.50;;
3101;SDS011;1561;42.666;23.392;2022-10-16T01:04:46;20.90;;;15.67;;
3101;SDS011;1561;42.666;23.392;2022-10-16T01:07:18;21.90;;;16.00;;
3101;SDS011;1561;42.666;23.392;2022-10-16T01:09:57;19.63;;;15.13;;
3101;SDS011;1561;42.666;23.392;2022-10-16T01:12:34;21.23;;;15.57;;
3101;SDS011;1561;42.666;23.392;2022-10-16T01:15:08;21.67;;;15.40;;
3101;SDS011;1561;42.666;23.392;2022-10-16T01:17:53;21.07;;;14.43;;
3101;SDS011;1561;42.666;23.392;2022-10-16T01:20:29;20.87;;;14.93;;
3101;SDS011;1561;42.666;23.392;2022-10-16T01:23:07;23.70;;;16.40;;
3101;SDS011;1561;42.666;23.392;2022-10-16T01:28:43;13.03;;;9.80;;
3101;SDS011;1561;42.666;23.392;2022-10-16T01:31:16;9.47;;;7.37;;
3101;SDS011;1561;42.666;23.392;2022-10-16T01:33:51;6.33;;;5.27;;
3101;SDS011;1561;42.666;23.392;2022-10-16T01:36:26;7.70;;;6.67;;
3101;SDS011;1561;42.666;23.392;2022-10-16T01:38:58;8.50;;;7.00;;
3101;SDS011;1561;42.666;23.392;2022-10-16T01:41:30;10.00;;;7.50;;
3101;SDS011;1561;42.666;23.392;2022-10-16T01:44:03;9.43;;;7.77;;
3101;SDS011;1561;42.666;23.392;2022-10-16T01:46:40;7.63;;;6.83;;
3101;SDS011;1561;42.666;23.392;2022-10-16T01:49:13;10.75;;;8.20;;
3101;SDS011;1561;42.666;23.392;2022-10-16T01:51:44;8.97;;;7.00;;
3101;SDS011;1561;42.666;23.392;2022-10-16T01:54:15;9.97;;;7.40;;
3101;SDS011;1561;42.666;23.392;2022-10-16T01:56:45;8.53;;;7.43;;
3101;SDS011;1561;42.666;23.392;2022-10-16T01:59:18;8.50;;;7.70;;
3101;SDS011;1561;42.666;23.392;2022-10-16T02:01:49;13.17;;;7.10;;
3101;SDS011;1561;42.666;23.392;2022-10-16T02:04:21;10.43;;;7.70;;
3101;SDS011;1561;42.666;23.392;2022-10-16T02:06:51;12.00;;;8.50;;
3101;SDS011;1561;42.666;23.392;2022-10-16T02:09:26;10.20;;;8.87;;
3101;SDS011;1561;42.666;23.392;2022-10-16T02:11:54;9.27;;;8.27;;
3101;SDS011;1561;42.666;23.392;2022-10-16T02:14:24;8.63;;;7.73;;
3101;SDS011;1561;42.666;23.392;2022-10-16T02:16:52;12.30;;;10.63;;
3101;SDS011;1561;42.666;23.392;2022-10-16T02:19:21;15.10;;;10.33;;
3101;SDS011;1561;42.666;23.392;2022-10-16T02:21:51;14.10;;;11.07;;
3101;SDS011;1561;42.666;23.392;2022-10-16T02:24:26;22.73;;;12.93;;
3101;SDS011;1561;42.666;23.392;2022-10-16T02:27:03;22.93;;;15.13;;
3101;SDS011;1561;42.666;23.392;2022-10-16T02:29:37;23.90;;;16.33;;
3101;SDS011;1561;42.666;23.392;2022-10-16T02:32:10;30.37;;;17.83;;
3101;SDS011;1561;42.666;23.392;2022-10-16T02:34:45;26.43;;;17.50;;
3101;SDS011;1561;42.666;23.392;2022-10-16T02:37:14;29.23;;;17.27;;
3101;SDS011;1561;42.666;23.392;2022-10-16T02:39:46;23.00;;;16.83;;
3101;SDS011;1561;42.666;23.392;2022-10-16T02:42:15;27.40;;;18.50;;
3101;SDS011;1561;42.666;23.392;2022-10-16T02:44:48;20.10;;;12.33;;
3101;SDS011;1561;42.666;23.392;2022-10-16T02:47:15;23.60;;;15.87;;
3101;SDS011;1561;42.666;23.392;2022-10-16T02:49:42;18.63;;;13.67;;
3101;SDS011;1561;42.666;23.392;2022-10-16T02:52:09;20.53;;;11.67;;
3101;SDS011;1561;42.666;23.392;2022-10-16T02:54:46;15.47;;;13.43;;
3101;SDS011;1561;42.666;23.392;2022-10-16T02:57:14;21.67;;;13.40;;
3101;SDS011;1561;42.666;23.392;2022-10-16T02:59:41;19.00;;;12.30;;
3101;SDS011;1561;42.666;23.392;2022-10-16T03:02:11;17.67;;;13.47;;
3101;SDS011;1561;42.666;23.392;2022-10-16T03:04:45;20.87;;;13.57;;
3101;SDS011;1561;42.666;23.392;2022-10-16T03:07:14;18.10;;;13.10;;
3101;SDS011;1561;42.666;23.392;2022-10-16T03:09:40;19.83;;;13.27;;
3101;SDS011;1561;42.666;23.392;2022-10-16T03:12:07;19.27;;;13.00;;
3101;SDS011;1561;42.666;23.392;2022-10-16T03:14:37;17.60;;;12.77;;
3101;SDS011;1561;42.666;23.392;2022-10-16T03:17:04;17.63;;;13.40;;
3101;SDS011;1561;42.666;23.392;2022-10-16T03:19:36;21.17;;;13.10;;
3101;SDS011;1561;42.666;23.392;2022-10-16T03:22:03;17.43;;;13.47;;
3101;SDS011;1561;42.666;23.392;2022-10-16T03:24:30;19.43;;;13.07;;
3101;SDS011;1561;42.666;23.392;2022-10-16T03:26:57;17.50;;;12.73;;
3101;SDS011;1561;42.666;23.392;2022-10-16T03:29:26;16.60;;;13.20;;
3101;SDS011;1561;42.666;23.392;2022-10-16T03:31:54;17.30;;;12.90;;
3101;SDS011;1561;42.666;23.392;2022-10-16T03:34:24;19.50;;;13.27;;
3101;SDS011;1561;42.666;23.392;2022-10-16T03:36:56;16.70;;;12.53;;
3101;SDS011;1561;42.666;23.392;2022-10-16T03:39:23;15.73;;;12.43;;
3101;SDS011;1561;42.666;23.392;2022-10-16T03:41:49;12.90;;;10.20;;
3101;SDS011;1561;42.666;23.392;2022-10-16T03:44:16;13.30;;;10.77;;
3101;SDS011;1561;42.666;23.392;2022-10-16T03:46:44;14.80;;;10.40;;
3101;SDS011;1561;42.666;23.392;2022-10-16T03:49:11;14.20;;;11.10;;
3101;SDS011;1561;42.666;23.392;2022-10-16T03:51:38;13.20;;;9.83;;
3101;SDS011;1561;42.666;23.392;2022-10-16T03:54:08;12.10;;;9.67;;
3101;SDS011;1561;42.666;23.392;2022-10-16T03:56:38;16.67;;;10.57;;
3101;SDS011;1561;42.666;23.392;2022-10-16T03:59:07;11.63;;;9.77;;
3101;SDS011;1561;42.666;23.392;2022-10-16T04:01:37;12.80;;;9.43;;
3101;SDS011;1561;42.666;23.392;2022-10-16T04:04:07;14.17;;;9.40;;
3101;SDS011;1561;42.666;23.392;2022-10-16T04:06:34;10.70;;;8.87;;
3101;SDS011;1561;42.666;23.392;2022-10-16T04:09:00;14.60;;;9.20;;
3101;SDS011;1561;42.666;23.392;2022-10-16T04:11:29;12.67;;;9.53;;
3101;SDS011;1561;42.666;23.392;2022-10-16T04:13:57;13.00;;;10.03;;
3101;SDS011;1561;42.666;23.392;2022-10-16T04:16:25;12.70;;;10.00;;
3101;SDS011;1561;42.666;23.392;2022-10-16T04:18:53;14.83;;;9.57;;
3101;SDS011;1561;42.666;23.392;2022-10-16T04:21:21;11.90;;;10.13;;
3101;SDS011;1561;42.666;23.392;2022-10-16T04:23:50;15.90;;;11.40;;
3101;SDS011;1561;42.666;23.392;2022-10-16T04:26:17;13.03;;;10.17;;
3101;SDS011;1561;42.666;23.392;2022-10-16T04:28:45;12.60;;;10.73;;
3101;SDS011;1561;42.666;23.392;2022-10-16T04:31:13;15.40;;;11.80;;
3101;SDS011;1561;42.666;23.392;2022-10-16T04:33:45;17.20;;;11.03;;
3101;SDS011;1561;42.666;23.392;2022-10-16T04:36:12;15.60;;;12.30;;
3101;SDS011;1561;42.666;23.392;2022-10-16T04:38:40;16.47;;;11.37;;
3101;SDS011;1561;42.666;23.392;2022-10-16T04:41:08;14.80;;;10.80;;
3101;SDS011;1561;42.666;23.392;2022-10-16T04:43:35;14.90;;;10.67;;
3101;SDS011;1561;42.666;23.392;2022-10-16T04:46:03;19.77;;;12.00;;
3101;SDS011;1561;42.666;23.392;2022-10-16T04:48:30;20.00;;;13.60;;
3101;SDS011;1561;42.666;23.392;2022-10-16T04:50:59;17.43;;;11.70;;
3101;SDS011;1561;42.666;23.392;2022-10-16T04:53:27;21.63;;;11.80;;
3101;SDS011;1561;42.666;23.392;2022-10-16T04:55:55;14.63;;;11.77;;
3101;SDS011;1561;42.666;23.392;2022-10-16T04:58:27;19.80;;;11.33;;
3101;SDS011;1561;42.666;23.392;2022-10-16T05:00:54;21.33;;;10.60;;
3101;SDS011;1561;42.666;23.392;2022-10-16T05:03:26;15.40;;;9.97;;
3101;SDS011;1561;42.666;23.392;2022-10-16T05:05:57;14.07;;;10.50;;
3101;SDS011;1561;42.666;23.392;2022-10-16T05:08:27;11.90;;;9.27;;
3101;SDS011;1561;42.666;23.392;2022-10-16T05:10:56;12.73;;;10.33;;
3101;SDS011;1561;42.666;23.392;2022-10-16T05:13:25;13.70;;;10.57;;
3101;SDS011;1561;42.666;23.392;2022-10-16T05:15:52;26.70;;;18.47;;
3101;SDS011;1561;42.666;23.392;2022-10-16T05:18:19;26.47;;;18.10;;
3101;SDS011;1561;42.666;23.392;2022-10-16T05:20:52;23.20;;;16.90;;
3101;SDS011;1561;42.666;23.392;2022-10-16T05:23:20;24.63;;;17.50;;
3101;SDS011;1561;42.666;23.392;2022-10-16T05:25:51;26.50;;;17.53;;
3101;SDS011;1561;42.666;23.392;2022-10-16T05:28:20;23.70;;;17.77;;
3101;SDS011;1561;42.666;23.392;2022-10-16T05:30:47;21.40;;;15.77;;
3101;SDS011;1561;42.666;23.392;2022-10-16T05:33:14;24.23;;;16.70;;
3101;SDS011;1561;42.666;23.392;2022-10-16T05:35:42;27.00;;;16.07;;
3101;SDS011;1561;42.666;23.392;2022-10-16T05:38:13;19.83;;;15.50;;
3101;SDS011;1561;42.666;23.392;2022-10-16T05:40:40;16.83;;;14.30;;
3101;SDS011;1561;42.666;23.392;2022-10-16T05:43:08;16.70;;;13.80;;
3101;SDS011;1561;42.666;23.392;2022-10-16T05:45:35;20.70;;;11.50;;
3101;SDS011;1561;42.666;23.392;2022-10-16T05:48:02;18.70;;;14.60;;
3101;SDS011;1561;42.666;23.392;2022-10-16T05:50:33;18.50;;;12.87;;
3101;SDS011;1561;42.666;23.392;2022-10-16T05:53:04;16.10;;;14.50;;
3101;SDS011;1561;42.666;23.392;2022-10-16T05:55:39;16.60;;;14.03;;
3101;SDS011;1561;42.666;23.392;2022-10-16T05:58:07;14.77;;;11.60;;
3101;SDS011;1561;42.666;23.392;2022-10-16T06:00:44;15.70;;;11.60;;
3101;SDS011;1561;42.666;23.392;2022-10-16T06:03:20;10.63;;;8.80;;
3101;SDS011;1561;42.666;23.392;2022-10-16T06:05:50;11.67;;;9.53;;
3101;SDS011;1561;42.666;23.392;2022-10-16T06:08:23;13.37;;;8.77;;
3101;SDS011;1561;42.666;23.392;2022-10-16T06:11:08;10.40;;;9.40;;
3101;SDS011;1561;42.666;23.392;2022-10-16T06:13:37;10.40;;;9.33;;
3101;SDS011;1561;42.666;23.392;2022-10-16T06:16:08;11.50;;;10.30;;
3101;SDS011;1561;42.666;23.392;2022-10-16T06:18:38;14.43;;;10.87;;
3101;SDS011;1561;42.666;23.392;2022-10-16T06:21:07;14.47;;;11.70;;
3101;SDS011;1561;42.666;23.392;2022-10-16T06:23:42;14.93;;;11.80;;
3101;SDS011;1561;42.666;23.392;2022-10-16T06:26:13;14.32;;;11.00;;
3101;SDS011;1561;42.666;23.392;2022-10-16T06:28:43;13.07;;;11.63;;
3101;SDS011;1561;42.666;23.392;2022-10-16T06:31:10;12.80;;;11.45;;
3101;SDS011;1561;42.666;23.392;2022-10-16T06:33:39;17.35;;;12.32;;
3101;SDS011;1561;42.666;23.392;2022-10-16T06:36:07;21.58;;;17.27;;
3101;SDS011;1561;42.666;23.392;2022-10-16T06:38:36;12.15;;;10.85;;
3101;SDS011;1561;42.666;23.392;2022-10-16T06:41:06;10.95;;;9.60;;
3101;SDS011;1561;42.666;23.392;2022-10-16T06:43:37;11.15;;;10.15;;
3101;SDS011;1561;42.666;23.392;2022-10-16T06:46:04;17.63;;;12.45;;
3101;SDS011;1561;42.666;23.392;2022-10-16T06:48:35;12.80;;;10.65;;
3101;SDS011;1561;42.666;23.392;2022-10-16T06:51:03;14.30;;;9.77;;
3101;SDS011;1561;42.666;23.392;2022-10-16T06:53:32;12.75;;;9.68;;
3101;SDS011;1561;42.666;23.392;2022-10-16T06:56:06;10.18;;;9.23;;
3101;SDS011;1561;42.666;23.392;2022-10-16T06:58:38;13.52;;;9.90;;
3101;SDS011;1561;42.666;23.392;2022-10-16T07:01:06;21.08;;;15.38;;
3101;SDS011;1561;42.666;23.392;2022-10-16T07:03:35;11.43;;;10.40;;
3101;SDS011;1561;42.666;23.392;2022-10-16T07:06:05;12.00;;;10.90;;
3101;SDS011;1561;42.666;23.392;2022-10-16T07:08:35;11.40;;;10.30;;
3101;SDS011;1561;42.666;23.392;2022-10-16T07:11:05;11.98;;;10.73;;
3101;SDS011;1561;42.666;23.392;2022-10-16T07:13:34;11.55;;;10.50;;
3101;SDS011;1561;42.666;23.392;2022-10-16T07:16:05;11.52;;;10.43;;
3101;SDS011;1561;42.666;23.392;2022-10-16T07:18:33;11.07;;;9.98;;
3101;SDS011;1561;42.666;23.392;2022-10-16T07:21:03;14.13;;;9.73;;
3101;SDS011;1561;42.666;23.392;2022-10-16T07:23:34;11.43;;;10.35;;
3101;SDS011;1561;42.666;23.392;2022-10-16T07:26:01;11.32;;;9.35;;
3101;SDS011;1561;42.666;23.392;2022-10-16T07:28:29;11.45;;;9.38;;
3101;SDS011;1561;42.666;23.392;2022-10-16T07:30:59;10.07;;;9.07;;
3101;SDS011;1561;42.666;23.392;2022-10-16T07:33:31;10.63;;;9.52;;
3101;SDS011;1561;42.666;23.392;2022-10-16T07:36:01;11.07;;;10.07;;
3101;SDS011;1561;42.666;23.392;2022-10-16T07:38:29;13.60;;;10.70;;
3101;SDS011;1561;42.666;23.392;2022-10-16T07:40:58;11.00;;;9.98;;
3101;SDS011;1561;42.666;23.392;2022-10-16T07:43:27;10.80;;;9.75;;
3101;SDS011;1561;42.666;23.392;2022-10-16T07:46:00;9.55;;;8.75;;
3101;SDS011;1561;42.666;23.392;2022-10-16T07:48:28;10.30;;;9.30;;
3101;SDS011;1561;42.666;23.392;2022-10-16T07:51:01;13.60;;;9.68;;
3101;SDS011;1561;42.666;23.392;2022-10-16T07:53:30;10.27;;;9.27;;
3101;SDS011;1561;42.666;23.392;2022-10-16T07:55:58;10.80;;;9.20;;
3101;SDS011;1561;42.666;23.392;2022-10-16T07:58:28;9.10;;;8.27;;
3101;SDS011;1561;42.666;23.392;2022-10-16T08:00:57;10.13;;;9.10;;
3101;SDS011;1561;42.666;23.392;2022-10-16T08:03:25;12.95;;;9.20;;
3101;SDS011;1561;42.666;23.392;2022-10-16T08:05:52;10.00;;;9.00;;
3101;SDS011;1561;42.666;23.392;2022-10-16T08:08:23;9.38;;;8.07;;
3101;SDS011;1561;42.666;23.392;2022-10-16T08:10:50;10.40;;;9.00;;
3101;SDS011;1561;42.666;23.392;2022-10-16T08:13:18;9.77;;;8.90;;
3101;SDS011;1561;42.666;23.392;2022-10-16T08:15:46;10.50;;;9.10;;
3101;SDS011;1561;42.666;23.392;2022-10-16T08:18:14;11.75;;;9.48;;
3101;SDS011;1561;42.666;23.392;2022-10-16T08:20:54;13.10;;;8.73;;
3101;SDS011;1561;42.666;23.392;2022-10-16T08:23:28;10.80;;;9.50;;
3101;SDS011;1561;42.666;23.392;2022-10-16T08:26:02;9.45;;;8.63;;
3101;SDS011;1561;42.666;23.392;2022-10-16T08:28:36;8.50;;;7.70;;
3101;SDS011;1561;42.666;23.392;2022-10-16T08:31:07;9.98;;;8.00;;
3101;SDS011;1561;42.666;23.392;2022-10-16T08:33:41;7.85;;;7.25;;
3101;SDS011;1561;42.666;23.392;2022-10-16T08:36:11;8.25;;;7.22;;
3101;SDS011;1561;42.666;23.392;2022-10-16T08:38:42;8.02;;;7.22;;
3101;SDS011;1561;42.666;23.392;2022-10-16T08:41:17;8.38;;;7.68;;
3101;SDS011;1561;42.666;23.392;2022-10-16T08:44:05;7.57;;;6.97;;
3101;SDS011;1561;42.666;23.392;2022-10-16T08:46:49;7.32;;;6.65;;
3101;SDS011;1561;42.666;23.392;2022-10-16T08:49:27;11.70;;;6.95;;
3101;SDS011;1561;42.666;23.392;2022-10-16T08:51:56;6.63;;;6.10;;
3101;SDS011;1561;42.666;23.392;2022-10-16T08:54:28;6.18;;;5.68;;
3101;SDS011;1561;42.666;23.392;2022-10-16T08:57:14;7.00;;;6.40;;
3101;SDS011;1561;42.666;23.392;2022-10-16T08:59:45;6.13;;;5.20;;
3101;SDS011;1561;42.666;23.392;2022-10-16T09:02:20;6.85;;;6.20;;
3101;SDS011;1561;42.666;23.392;2022-10-16T09:04:55;11.85;;;9.38;;
3101;SDS011;1561;42.666;23.392;2022-10-16T09:07:33;9.00;;;6.00;;
3101;SDS011;1561;42.666;23.392;2022-10-16T09:10:19;6.75;;;6.13;;
3101;SDS011;1561;42.666;23.392;2022-10-16T09:13:08;5.60;;;5.10;;
3101;SDS011;1561;42.666;23.392;2022-10-16T09:15:44;11.18;;;8.73;;
3101;SDS011;1561;42.666;23.392;2022-10-16T09:18:19;5.82;;;5.35;;
3101;SDS011;1561;42.666;23.392;2022-10-16T09:20:51;6.22;;;5.47;;
3101;SDS011;1561;42.666;23.392;2022-10-16T09:23:25;5.93;;;5.45;;
3101;SDS011;1561;42.666;23.392;2022-10-16T09:25:55;6.20;;;5.60;;
3101;SDS011;1561;42.666;23.392;2022-10-16T09:28:26;6.28;;;5.50;;
3101;SDS011;1561;42.666;23.392;2022-10-16T09:30:54;7.05;;;6.50;;
3101;SDS011;1561;42.666;23.392;2022-10-16T09:33:22;7.03;;;6.43;;
3101;SDS011;1561;42.666;23.392;2022-10-16T09:35:51;7.28;;;6.50;;
3101;SDS011;1561;42.666;23.392;2022-10-16T09:38:25;5.55;;;5.05;;
3101;SDS011;1561;42.666;23.392;2022-10-16T09:40:57;5.45;;;4.95;;
3101;SDS011;1561;42.666;23.392;2022-10-16T09:43:33;4.93;;;4.55;;
3101;SDS011;1561;42.666;23.392;2022-10-16T09:46:05;21.45;;;12.20;;
3101;SDS011;1561;42.666;23.392;2022-10-16T09:48:35;12.13;;;10.68;;
3101;SDS011;1561;42.666;23.392;2022-10-16T09:51:06;5.90;;;5.40;;
3101;SDS011;1561;42.666;23.392;2022-10-16T09:53:45;5.45;;;5.05;;
3101;SDS011;1561;42.666;23.392;2022-10-16T09:56:22;8.60;;;7.70;;
3101;SDS011;1561;42.666;23.392;2022-10-16T09:58:51;5.50;;;5.10;;
3101;SDS011;1561;42.666;23.392;2022-10-16T10:01:20;7.22;;;5.93;;
3101;SDS011;1561;42.666;23.392;2022-10-16T10:03:49;5.72;;;4.97;;
3101;SDS011;1561;42.666;23.392;2022-10-16T10:06:19;9.90;;;8.55;;
3101;SDS011;1561;42.666;23.392;2022-10-16T10:09:06;5.78;;;5.38;;
3101;SDS011;1561;42.666;23.392;2022-10-16T10:11:47;6.65;;;4.60;;
3101;SDS011;1561;42.666;23.392;2022-10-16T10:14:19;8.20;;;6.18;;
3101;SDS011;1561;42.666;23.392;2022-10-16T10:17:13;5.93;;;5.45;;
3101;SDS011;1561;42.666;23.392;2022-10-16T10:19:43;6.25;;;5.65;;
3101;SDS011;1561;42.666;23.392;2022-10-16T10:22:17;5.45;;;4.95;;
3101;SDS011;1561;42.666;23.392;2022-10-16T10:24:55;4.65;;;4.28;;
3101;SDS011;1561;42.666;23.392;2022-10-16T10:27:39;5.88;;;5.00;;
3101;SDS011;1561;42.666;23.392;2022-10-16T10:30:18;6.38;;;5.28;;
3101;SDS011;1561;42.666;23.392;2022-10-16T10:32:51;5.15;;;4.75;;
3101;SDS011;1561;42.666;23.392;2022-10-16T10:35:28;6.03;;;4.60;;
3101;SDS011;1561;42.666;23.392;2022-10-16T10:38:06;4.28;;;3.97;;
3101;SDS011;1561;42.666;23.392;2022-10-16T10:40:45;5.18;;;4.68;;
3101;SDS011;1561;42.666;23.392;2022-10-16T10:43:31;5.35;;;4.85;;
3101;SDS011;1561;42.666;23.392;2022-10-16T10:46:12;4.88;;;4.47;;
3101;SDS011;1561;42.666;23.392;2022-10-16T10:48:52;3.50;;;3.20;;
3101;SDS011;1561;42.666;23.392;2022-10-16T10:51:28;4.03;;;3.72;;
3101;SDS011;1561;42.666;23.392;2022-10-16T10:54:04;4.10;;;3.90;;
3101;SDS011;1561;42.666;23.392;2022-10-16T10:56:44;3.40;;;3.20;;
3101;SDS011;1561;42.666;23.392;2022-10-16T10:59:42;4.22;;;3.83;;
3101;SDS011;1561;42.666;23.392;2022-10-16T11:02:30;4.13;;;3.83;;
3101;SDS011;1561;42.666;23.392;2022-10-16T11:08:03;4.30;;;4.00;;
3101;SDS011;1561;42.666;23.392;2022-10-16T11:10:39;4.38;;;4.05;;
3101;SDS011;1561;42.666;23.392;2022-10-16T11:13:15;4.65;;;4.35;;
3101;SDS011;1561;42.666;23.392;2022-10-16T11:18:43;4.78;;;4.38;;
3101;SDS011;1561;42.666;23.392;2022-10-16T11:21:28;4.88;;;4.43;;
3101;SDS011;1561;42.666;23.392;2022-10-16T11:24:14;5.00;;;4.60;;
3101;SDS011;1561;42.666;23.392;2022-10-16T11:26:49;4.88;;;4.47;;
3101;SDS011;1561;42.666;23.392;2022-10-16T11:29:28;4.82;;;4.32;;
3101;SDS011;1561;42.666;23.392;2022-10-16T11:31:59;4.60;;;4.30;;
3101;SDS011;1561;42.666;23.392;2022-10-16T11:34:34;4.95;;;4.55;;
3101;SDS011;1561;42.666;23.392;2022-10-16T11:37:08;3.90;;;3.70;;
3101;SDS011;1561;42.666;23.392;2022-10-16T11:39:38;6.03;;;4.25;;
3101;SDS011;1561;42.666;23.392;2022-10-16T11:42:08;6.93;;;3.88;;
3101;SDS011;1561;42.666;23.392;2022-10-16T11:44:44;5.78;;;4.82;;
3101;SDS011;1561;42.666;23.392;2022-10-16T11:47:37;4.90;;;4.45;;
3101;SDS011;1561;42.666;23.392;2022-10-16T11:50:15;5.22;;;4.72;;
3101;SDS011;1561;42.666;23.392;2022-10-16T11:52:50;5.68;;;4.93;;
3101;SDS011;1561;42.666;23.392;2022-10-16T11:55:23;5.10;;;4.55;;
3101;SDS011;1561;42.666;23.392;2022-10-16T11:57:57;4.47;;;4.18;;
3101;SDS011;1561;42.666;23.392;2022-10-16T12:00:28;5.30;;;4.90;;
3101;SDS011;1561;42.666;23.392;2022-10-16T12:03:00;4.32;;;4.03;;
3101;SDS011;1561;42.666;23.392;2022-10-16T12:05:47;4.18;;;3.88;;
3101;SDS011;1561;42.666;23.392;2022-10-16T12:08:24;4.10;;;3.80;;
3101;SDS011;1561;42.666;23.392;2022-10-16T12:10:53;5.53;;;4.78;;
3101;SDS011;1561;42.666;23.392;2022-10-16T12:13:33;4.93;;;4.53;;
3101;SDS011;1561;42.666;23.392;2022-10-16T12:16:05;4.47;;;4.13;;
3101;SDS011;1561;42.666;23.392;2022-10-16T12:18:37;4.43;;;4.10;;
3101;SDS011;1561;42.666;23.392;2022-10-16T12:21:04;4.60;;;4.20;;
3101;SDS011;1561;42.666;23.392;2022-10-16T12:23:32;4.95;;;4.45;;
3101;SDS011;1561;42.666;23.392;2022-10-16T12:26:04;5.00;;;4.60;;
3101;SDS011;1561;42.666;23.392;2022-10-16T12:28:32;4.85;;;4.45;;
3101;SDS011;1561;42.666;23.392;2022-10-16T12:31:01;4.38;;;4.07;;
3101;SDS011;1561;42.666;23.392;2022-10-16T12:33:31;4.47;;;4.10;;
3101;SDS011;1561;42.666;23.392;2022-10-16T12:36:05;4.20;;;3.90;;
3101;SDS011;1561;42.666;23.392;2022-10-16T12:38:38;4.57;;;4.22;;
3101;SDS011;1561;42.666;23.392;2022-10-16T12:41:24;4.50;;;4.10;;
3101;SDS011;1561;42.666;23.392;2022-10-16T12:43:52;5.50;;;4.70;;
3101;SDS011;1561;42.666;23.392;2022-10-16T12:46:22;4.70;;;4.28;;
3101;SDS011;1561;42.666;23.392;2022-10-16T12:49:05;6.25;;;4.78;;
3101;SDS011;1561;42.666;23.392;2022-10-16T12:51:49;5.47;;;4.47;;
3101;SDS011;1561;42.666;23.392;2022-10-16T12:54:17;5.13;;;4.65;;
3101;SDS011;1561;42.666;23.392;2022-10-16T12:56:49;5.57;;;5.05;;
3101;SDS011;1561;42.666;23.392;2022-10-16T12:59:28;5.28;;;4.78;;
3101;SDS011;1561;42.666;23.392;2022-10-16T13:02:14;4.53;;;4.15;;
3101;SDS011;1561;42.666;23.392;2022-10-16T13:05:04;5.53;;;4.40;;
3101;SDS011;1561;42.666;23.392;2022-10-16T13:07:49;6.85;;;3.95;;
3101;SDS011;1561;42.666;23.392;2022-10-16T13:10:24;5.13;;;4.50;;
3101;SDS011;1561;42.666;23.392;2022-10-16T13:13:09;6.13;;;4.38;;
3101;SDS011;1561;42.666;23.392;2022-10-16T13:15:52;5.32;;;4.32;;
3101;SDS011;1561;42.666;23.392;2022-10-16T13:18:29;3.90;;;3.60;;
3101;SDS011;1561;42.666;23.392;2022-10-16T13:21:14;5.10;;;3.90;;
3101;SDS011;1561;42.666;23.392;2022-10-16T13:23:54;4.90;;;4.47;;
3101;SDS011;1561;42.666;23.392;2022-10-16T13:26:34;5.47;;;4.50;;
3101;SDS011;1561;42.666;23.392;2022-10-16T13:29:10;4.68;;;4.28;;
3101;SDS011;1561;42.666;23.392;2022-10-16T13:31:38;4.63;;;4.22;;
3101;SDS011;1561;42.666;23.392;2022-10-16T13:34:05;4.85;;;4.45;;
3101;SDS011;1561;42.666;23.392;2022-10-16T13:36:53;4.50;;;4.00;;
3101;SDS011;1561;42.666;23.392;2022-10-16T13:39:23;4.63;;;4.20;;
3101;SDS011;1561;42.666;23.392;2022-10-16T13:42:04;3.65;;;3.28;;
3101;SDS011;1561;42.666;23.392;2022-10-16T13:44:35;3.97;;;3.67;;
3101;SDS011;1561;42.666;23.392;2022-10-16T13:47:11;5.88;;;5.03;;
3101;SDS011;1561;42.666;23.392;2022-10-16T13:49:43;5.57;;;3.80;;
3101;SDS011;1561;42.666;23.392;2022-10-16T13:52:16;4.63;;;4.07;;
3101;SDS011;1561;42.666;23.392;2022-10-16T13:54:51;4.13;;;3.83;;
3101;SDS011;1561;42.666;23.392;2022-10-16T13:57:18;4.60;;;3.80;;
3101;SDS011;1561;42.666;23.392;2022-10-16T13:59:49;6.15;;;4.30;;
3101;SDS011;1561;42.666;23.392;2022-10-16T14:02:18;4.38;;;3.97;;
3101;SDS011;1561;42.666;23.392;2022-10-16T14:04:52;7.05;;;3.90;;
3101;SDS011;1561;42.666;23.392;2022-10-16T14:07:23;4.93;;;3.47;;
3101;SDS011;1561;42.666;23.392;2022-10-16T14:09:54;5.38;;;3.78;;
3101;SDS011;1561;42.666;23.392;2022-10-16T14:12:23;3.72;;;3.38;;
3101;SDS011;1561;42.666;23.392;2022-10-16T14:14:53;4.22;;;3.92;;
3101;SDS011;1561;42.666;23.392;2022-10-16T14:17:24;3.75;;;3.45;;
3101;SDS011;1561;42.666;23.392;2022-10-16T14:19:54;4.47;;;3.78;;
3101;SDS011;1561;42.666;23.392;2022-10-16T14:22:29;4.50;;;3.83;;
3101;SDS011;1561;42.666;23.392;2022-10-16T14:25:01;4.82;;;4.10;;
3101;SDS011;1561;42.666;23.392;2022-10-16T14:27:30;4.15;;;3.75;;
3101;SDS011;1561;42.666;23.392;2022-10-16T14:30:08;4.53;;;3.63;;
3101;SDS011;1561;42.666;23.392;2022-10-16T14:32:40;4.22;;;3.83;;
3101;SDS011;1561;42.666;23.392;2022-10-16T14:35:22;4.00;;;3.50;;
3101;SDS011;1561;42.666;23.392;2022-10-16T14:37:52;3.17;;;2.90;;
3101;SDS011;1561;42.666;23.392;2022-10-16T14:40:21;4.80;;;4.40;;
3101;SDS011;1561;42.666;23.392;2022-10-16T14:42:50;3.90;;;3.60;;
3101;SDS011;1561;42.666;23.392;2022-10-16T14:45:19;3.97;;;3.67;;
3101;SDS011;1561;42.666;23.392;2022-10-16T14:47:49;4.50;;;4.10;;
3101;SDS011;1561;42.666;23.392;2022-10-16T14:50:18;5.40;;;4.90;;
3101;SDS011;1561;42.666;23.392;2022-10-16T14:52:47;4.80;;;4.17;;
3101;SDS011;1561;42.666;23.392;2022-10-16T14:55:14;4.33;;;4.00;;
3101;SDS011;1561;42.666;23.392;2022-10-16T14:57:46;4.83;;;3.67;;
3101;SDS011;1561;42.666;23.392;2022-10-16T15:00:16;3.90;;;3.70;;
3101;SDS011;1561;42.666;23.392;2022-10-16T15:02:47;3.67;;;3.37;;
3101;SDS011;1561;42.666;23.392;2022-10-16T15:05:17;3.90;;;3.60;;
3101;SDS011;1561;42.666;23.392;2022-10-16T15:07:48;4.20;;;3.63;;
3101;SDS011;1561;42.666;23.392;2022-10-16T15:10:20;4.20;;;3.90;;
3101;SDS011;1561;42.666;23.392;2022-10-16T15:12:50;4.20;;;3.83;;
3101;SDS011;1561;42.666;23.392;2022-10-16T15:15:23;4.60;;;4.20;;
3101;SDS011;1561;42.666;23.392;2022-10-16T15:17:55;5.00;;;4.00;;
3101;SDS011;1561;42.666;23.392;2022-10-16T15:20:26;7.30;;;4.70;;
3101;SDS011;1561;42.666;23.392;2022-10-16T15:22:59;5.40;;;4.23;;
3101;SDS011;1561;42.666;23.392;2022-10-16T15:25:30;3.93;;;3.53;;